Time;durP1;ratioP1;P1;durP2;ratioP2;P2;SDS_P1;SDS_P2;PMS_P1;PMS_P2;Temp;Humidity;BMP_temperature;BMP_pressure;BME280_temperature;BME280_humidity;BME280_pressure;Samples;Min_cycle;Max_cycle;Signal;HPM_P1;HPM_P2
2022/05/21 00:01:03;;;;;;;13.48;12.05;;;;;;;26.45;50.72;100015.91;5111577;27;20044;-68
2022/05/21 00:03:30;;;;;;;14.30;10.38;;;;;;;26.37;50.95;100015.06;5115230;27;20047;-68
2022/05/21 00:05:57;;;;;;;17.55;11.93;;;;;;;26.22;51.27;99994.16;5112782;27;20047;-68
2022/05/21 00:08:24;;;;;;;15.18;12.93;;;;;;;26.24;51.56;100008.88;5111063;27;20139;-68
2022/05/21 00:10:51;;;;;;;15.18;11.00;;;;;;;26.14;51.75;99995.31;5105628;28;20048;-68
2022/05/21 00:13:18;;;;;;;11.18;9.68;;;;;;;26.10;51.40;99997.34;5114431;28;20149;-68
2022/05/21 00:15:45;;;;;;;15.10;11.07;;;;;;;26.05;51.80;99999.75;5114146;27;20059;-68
2022/05/21 00:18:12;;;;;;;15.70;12.00;;;;;;;25.90;52.05;99987.41;5111618;27;20123;-69
2022/05/21 00:20:47;;;;;;;13.80;10.95;;;;;;;25.96;52.17;100018.09;5114844;27;20069;-69
2022/05/21 00:23:41;;;;;;;13.35;11.48;;;;;;;25.75;52.53;100001.56;5111241;28;20079;-69
2022/05/21 00:26:11;;;;;;;14.27;11.65;;;;;;;25.80;53.05;100005.31;5103363;28;20130;-68
2022/05/21 00:28:41;;;;;;;13.40;10.60;;;;;;;25.70;52.99;99993.34;5112354;27;20134;-68
2022/05/21 00:31:10;;;;;;;10.93;9.68;;;;;;;25.46;52.95;99966.22;5112285;27;20036;-69
2022/05/21 00:33:38;;;;;;;12.00;10.55;;;;;;;25.57;53.12;99997.75;5102554;27;20414;-69
2022/05/21 00:36:07;;;;;;;12.30;9.73;;;;;;;25.56;53.17;99995.28;5111008;27;20494;-68
2022/05/21 00:38:35;;;;;;;18.58;11.52;;;;;;;25.58;52.96;99993.69;5111681;27;20138;-69
2022/05/21 00:41:04;;;;;;;14.38;11.07;;;;;;;25.39;52.72;99963.31;5109183;27;20123;-68
2022/05/21 00:43:48;;;;;;;11.20;9.88;;;;;;;25.49;52.63;99984.63;5095942;28;20054;-68
2022/05/21 00:46:30;;;;;;;14.45;9.75;;;;;;;25.50;52.74;99980.53;5109464;27;20056;-68
2022/05/21 00:49:25;;;;;;;12.32;10.27;;;;;;;25.41;53.17;99980.06;5112429;28;20043;-69
2022/05/21 00:52:14;;;;;;;15.00;10.98;;;;;;;25.36;53.10;99974.69;5111073;28;20119;-69
2022/05/21 00:54:47;;;;;;;13.07;10.80;;;;;;;25.34;52.62;99969.41;5097945;28;20573;-69
2022/05/21 00:57:24;;;;;;;12.80;11.07;;;;;;;25.47;52.31;99964.16;5113925;27;20083;-68
2022/05/21 01:00:02;;;;;;;15.02;11.05;;;;;;;25.48;52.39;99960.13;5112479;27;20057;-69
2022/05/21 01:02:38;;;;;;;12.52;9.98;;;;;;;25.53;51.71;99959.72;5110603;28;20501;-69
2022/05/21 01:05:10;;;;;;;16.02;12.32;;;;;;;25.59;51.59;99966.72;5104974;28;20052;-68
2022/05/21 01:07:38;;;;;;;12.77;10.65;;;;;;;25.54;51.31;99947.09;5106703;28;20482;-67
2022/05/21 01:10:06;;;;;;;14.10;9.20;;;;;;;25.59;51.40;99954.47;5106751;27;20066;-69
2022/05/21 01:12:38;;;;;;;16.15;10.38;;;;;;;25.68;51.24;99978.66;5114000;27;20047;-68
2022/05/21 01:15:10;;;;;;;12.32;9.43;;;;;;;25.71;50.88;99980.72;5110952;27;20048;-69
2022/05/21 01:17:37;;;;;;;15.60;9.77;;;;;;;25.73;50.65;99978.25;5138732;27;20061;-69
2022/05/21 01:20:07;;;;;;;10.63;9.73;;;;;;;25.74;50.10;99959.91;5106292;28;20043;-68
2022/05/21 01:23:03;;;;;;;17.33;9.40;;;;;;;25.89;49.73;99965.75;5109995;28;20158;-70
2022/05/21 01:25:34;;;;;;;12.43;10.57;;;;;;;25.95;49.81;99961.28;5096174;28;20078;-69
2022/05/21 01:28:03;;;;;;;15.18;11.50;;;;;;;25.93;50.43;99969.44;5111881;27;20126;-69
2022/05/21 01:30:34;;;;;;;11.60;10.40;;;;;;;25.81;50.50;99949.75;5111177;27;20142;-69
2022/05/21 01:33:06;;;;;;;12.13;10.52;;;;;;;25.82;50.43;99962.84;5107851;28;20051;-69
2022/05/21 01:35:33;;;;;;;13.05;10.95;;;;;;;25.72;50.42;99950.91;5108850;28;20130;-69
2022/05/21 01:38:00;;;;;;;12.85;10.90;;;;;;;25.76;50.28;99957.44;5112078;27;20130;-69
2022/05/21 01:40:29;;;;;;;13.07;10.73;;;;;;;25.62;50.54;99931.63;5101712;28;20495;-70
2022/05/21 01:45:42;;;;;;;11.95;10.88;;;;;;;25.51;51.00;99937.28;5111827;28;20059;-70
2022/05/21 01:48:10;;;;;;;12.02;10.75;;;;;;;25.53;51.22;99951.16;5112739;27;20112;-69
2022/05/21 01:50:38;;;;;;;14.02;9.85;;;;;;;25.47;51.38;99958.44;5112986;27;20138;-69
2022/05/21 01:53:05;;;;;;;16.90;10.98;;;;;;;25.36;51.55;99963.28;5108133;28;20057;-68
2022/05/21 01:55:32;;;;;;;12.68;11.38;;;;;;;25.33;52.05;99958.34;5110315;27;20058;-69
2022/05/21 01:57:59;;;;;;;13.13;11.43;;;;;;;25.20;52.27;99937.84;5111513;27;20138;-70
2022/05/21 02:00:27;;;;;;;14.88;11.20;;;;;;;24.90;52.49;99897.94;5112024;27;20048;-71
2022/05/21 02:02:54;;;;;;;14.23;11.95;;;;;;;25.14;52.71;99934.53;5104698;27;20043;-70
2022/05/21 02:05:21;;;;;;;13.90;11.18;;;;;;;25.13;52.82;99932.03;5108693;27;20052;-70
2022/05/21 02:07:48;;;;;;;12.57;10.98;;;;;;;25.07;53.00;99940.13;5111738;27;20056;-70
2022/05/21 02:10:16;;;;;;;13.50;11.73;;;;;;;25.07;53.05;99928.72;5114972;27;20134;-69
2022/05/21 02:12:43;;;;;;;15.05;10.93;;;;;;;24.74;53.49;99881.06;5111630;28;20478;-68
2022/05/21 02:15:10;;;;;;;13.43;11.98;;;;;;;24.98;53.59;99908.22;5111678;28;20058;-69
2022/05/21 02:17:37;;;;;;;16.73;11.48;;;;;;;24.97;53.62;99900.88;5109965;27;20052;-68
2022/05/21 02:20:04;;;;;;;13.20;11.48;;;;;;;24.82;53.25;99869.31;5112592;28;20055;-68
2022/05/21 02:22:31;;;;;;;13.82;11.52;;;;;;;24.94;53.25;99881.66;5110879;28;20050;-67
2022/05/21 02:24:58;;;;;;;20.67;12.48;;;;;;;24.92;53.74;99869.78;5111454;28;20071;-68
2022/05/21 02:27:25;;;;;;;9.63;8.68;;;;;;;24.93;51.00;99886.56;5110537;27;20046;-67
2022/05/21 02:29:52;;;;;;;18.40;9.80;;;;;;;25.17;49.88;99892.91;5110762;28;20421;-66
2022/05/21 02:32:19;;;;;;;15.77;9.23;;;;;;;25.44;48.82;99907.81;5094830;28;20040;-68
2022/05/21 02:34:46;;;;;;;15.23;9.25;;;;;;;25.65;47.90;99907.97;5109932;28;20131;-67
2022/05/21 02:39:59;;;;;;;19.45;9.55;;;;;;;25.73;47.17;99885.94;5108725;28;20050;-68
2022/05/21 02:42:43;;;;;;;13.73;9.68;;;;;;;25.97;46.88;99901.63;5115123;28;20046;-68
2022/05/21 02:45:14;;;;;;;10.60;9.25;;;;;;;26.03;46.86;99896.34;5101846;28;20055;-66
2022/05/21 02:47:41;;;;;;;14.10;9.52;;;;;;;26.03;46.65;99917.19;5101297;28;20075;-69
2022/05/21 02:50:09;;;;;;;13.55;10.65;;;;;;;25.99;46.94;99916.34;5111748;28;20134;-66
2022/05/21 02:52:36;;;;;;;10.68;8.95;;;;;;;26.00;46.13;99918.00;5105435;28;20251;-66
2022/05/21 02:55:05;;;;;;;11.40;8.23;;;;;;;26.14;45.25;99923.78;5108610;28;20047;-64
2022/05/21 02:57:32;;;;;;;11.23;7.68;;;;;;;26.27;44.45;99929.97;5148058;27;20147;-65
2022/05/21 03:00:10;;;;;;;8.77;7.88;;;;;;;26.37;43.31;99919.78;5092929;27;20080;-66
2022/05/21 03:02:37;;;;;;;9.63;8.60;;;;;;;26.35;43.20;99923.03;5113555;27;20075;-66
2022/05/21 03:05:06;;;;;;;13.95;9.73;;;;;;;26.39;44.81;99928.78;5115188;28;20424;-67
2022/05/21 03:07:41;;;;;;;13.07;10.73;;;;;;;26.23;45.65;99920.56;5111242;27;20135;-67
2022/05/21 03:10:21;;;;;;;13.77;10.57;;;;;;;26.08;45.94;99899.63;5113024;27;20145;-66
2022/05/21 03:12:51;;;;;;;11.65;9.65;;;;;;;26.17;45.64;99922.16;5114295;27;20063;-66
2022/05/21 03:15:20;;;;;;;13.02;9.63;;;;;;;26.20;45.76;99927.09;5112403;28;20451;-66
2022/05/21 03:17:47;;;;;;;10.80;9.60;;;;;;;26.03;45.49;99908.59;5116738;28;20094;-66
2022/05/21 03:20:16;;;;;;;11.00;10.00;;;;;;;26.08;46.33;99931.09;5118505;27;20586;-67
2022/05/21 03:22:43;;;;;;;;;;;;;;;25.82;48.34;99943.63;5113710;28;20130;-66
2022/05/21 03:25:11;;;;;;;15.52;11.43;;;;;;;25.70;49.03;99939.03;5112800;28;20015;-66
2022/05/21 03:27:38;;;;;;;11.27;10.32;;;;;;;25.65;49.54;99941.44;5113013;27;20551;-66
2022/05/21 03:30:09;;;;;;;15.23;10.23;;;;;;;25.59;49.43;99948.75;5111212;28;20122;-66
2022/05/21 03:32:35;;;;;;;13.20;11.13;;;;;;;25.39;50.36;99936.75;5114745;27;20142;-66
2022/05/21 03:35:03;;;;;;;13.20;10.45;;;;;;;25.05;50.38;99886.25;5113914;28;20071;-65
2022/05/21 03:37:30;;;;;;;11.23;8.98;;;;;;;25.40;49.75;99929.81;5114927;28;20071;-65
2022/05/21 03:39:57;;;;;;;10.23;9.15;;;;;;;25.45;48.62;99924.56;5104007;28;20063;-66
2022/05/21 03:42:24;;;;;;;12.50;11.02;;;;;;;25.51;47.87;99902.16;5113117;27;20126;-66
2022/05/21 03:44:51;;;;;;;10.40;9.50;;;;;;;25.66;47.24;99926.75;5114308;28;20063;-65
2022/05/21 03:47:18;;;;;;;12.00;10.85;;;;;;;25.78;46.80;99925.63;5106731;28;20583;-65
2022/05/21 03:49:45;;;;;;;11.82;10.55;;;;;;;25.62;46.90;99893.63;5113039;27;20087;-66
2022/05/21 03:52:12;;;;;;;12.68;10.20;;;;;;;25.85;45.95;99914.25;5115744;28;20079;-66
2022/05/21 03:54:39;;;;;;;11.65;10.07;;;;;;;25.96;46.39;99928.59;5114039;27;20083;-66
2022/05/21 03:57:06;;;;;;;12.27;10.73;;;;;;;25.99;45.46;99913.50;5112772;28;20130;-65
2022/05/21 03:59:34;;;;;;;13.63;10.00;;;;;;;26.23;46.02;99932.00;5115023;28;20589;-65
2022/05/21 04:02:01;;;;;;;15.52;10.02;;;;;;;26.13;46.49;99936.44;5109669;27;20478;-65
2022/05/21 04:04:28;;;;;;;13.50;9.77;;;;;;;25.97;46.67;99913.06;5113513;28;20048;-65
2022/05/21 04:06:55;;;;;;;12.20;9.43;;;;;;;25.90;46.87;99925.28;5112785;27;20171;-65
2022/05/21 04:09:21;;;;;;;11.88;9.90;;;;;;;25.82;46.62;99911.38;5113228;28;20086;-66
2022/05/21 04:11:49;;;;;;;12.95;9.98;;;;;;;25.86;46.78;99898.72;5107166;28;20127;-65
2022/05/21 04:14:16;;;;;;;12.10;10.40;;;;;;;25.78;47.24;99885.56;5108558;27;20078;-65
2022/05/21 04:16:43;;;;;;;14.07;10.23;;;;;;;25.93;47.73;99913.03;5110973;27;20134;-65
2022/05/21 04:19:11;;;;;;;12.73;10.52;;;;;;;25.80;48.00;99879.47;5113236;28;20048;-63
2022/05/21 04:21:38;;;;;;;10.88;9.85;;;;;;;25.52;48.32;99836.00;5113264;27;20054;-66
2022/05/21 04:24:05;;;;;;;13.65;10.10;;;;;;;25.62;48.58;99857.28;5110371;27;20131;-66
2022/05/21 04:26:32;;;;;;;14.93;9.45;;;;;;;25.65;48.92;99887.13;5113922;27;20134;-66
2022/05/21 04:28:59;;;;;;;12.80;11.55;;;;;;;25.48;49.29;99866.59;5110958;28;20143;-65
2022/05/21 04:31:26;;;;;;;13.98;10.48;;;;;;;25.45;49.03;99872.28;5102596;27;20145;-65
2022/05/21 04:33:58;;;;;;;13.55;12.23;;;;;;;25.41;49.04;99889.41;5108045;28;20048;-64
2022/05/21 04:36:25;;;;;;;11.73;10.15;;;;;;;25.18;48.88;99869.66;5114518;27;20079;-65
2022/05/21 04:38:53;;;;;;;12.50;9.88;;;;;;;25.35;48.61;99875.91;5113755;27;20083;-65
2022/05/21 04:41:22;;;;;;;13.32;8.77;;;;;;;25.33;47.13;99866.88;5109011;27;20044;-66
2022/05/21 04:43:51;;;;;;;11.35;9.45;;;;;;;25.28;46.85;99854.63;5109807;27;20078;-64
2022/05/21 04:46:18;;;;;;;11.80;10.05;;;;;;;25.45;46.27;99849.44;5104923;27;20154;-64
2022/05/21 04:48:46;;;;;;;14.73;8.40;;;;;;;25.66;46.26;99858.13;5111616;28;20044;-65
2022/05/21 04:51:36;;;;;;;19.25;8.70;;;;;;;25.59;45.29;99840.94;5113622;27;20044;-64
2022/05/21 04:54:03;;;;;;;9.82;8.82;;;;;;;25.69;45.28;99857.31;5107959;28;20142;-65
2022/05/21 04:56:31;;;;;;;14.30;8.30;;;;;;;25.61;45.23;99841.34;5116754;28;20079;-65
2022/05/21 04:59:09;;;;;;;11.18;9.13;;;;;;;25.85;45.05;99887.69;5109207;27;20051;-65
2022/05/21 05:01:36;;;;;;;;;;;;;;;25.83;45.78;99907.28;5116593;27;20086;-65
2022/05/21 05:04:04;;;;;;;17.30;11.75;;;;;;;25.76;46.64;99914.56;5111951;28;20383;-65
2022/05/21 05:06:32;;;;;;;16.08;11.35;;;;;;;25.69;47.29;99920.22;5110244;28;20078;-67
2022/05/21 05:08:59;;;;;;;11.00;10.00;;;;;;;25.61;47.90;99923.47;5102929;28;20170;-67
2022/05/21 05:11:27;;;;;;;11.95;10.68;;;;;;;25.63;47.25;99936.13;5110642;28;20078;-65
2022/05/21 05:13:54;;;;;;;10.63;9.55;;;;;;;25.57;46.70;99931.16;5113177;28;20074;-65
2022/05/21 05:16:22;;;;;;;10.88;9.73;;;;;;;25.53;46.45;99931.97;5105407;28;20047;-66
2022/05/21 05:18:48;;;;;;;9.75;9.05;;;;;;;25.31;45.75;99887.31;5111290;28;20105;-66
2022/05/21 05:21:15;;;;;;;11.13;8.18;;;;;;;25.58;44.90;99927.94;5106354;28;20135;-67
2022/05/21 05:23:42;;;;;;;10.68;8.27;;;;;;;25.58;45.21;99930.78;5097504;28;20122;-69
2022/05/21 05:26:09;;;;;;;15.07;8.68;;;;;;;25.37;46.61;99914.31;5112147;28;20130;-68
2022/05/21 05:28:36;;;;;;;10.75;8.85;;;;;;;24.94;49.59;99885.34;5112925;28;20079;-66
2022/05/21 05:31:03;;;;;;;11.77;10.27;;;;;;;24.82;49.47;99862.81;5105879;27;20150;-65
2022/05/21 05:33:30;;;;;;;13.15;10.18;;;;;;;24.54;48.70;99809.91;5099959;28;20067;-68
2022/05/21 05:35:56;;;;;;;15.02;9.30;;;;;;;24.86;48.24;99854.25;5111454;27;20075;-66
2022/05/21 05:38:23;;;;;;;9.75;8.98;;;;;;;24.75;47.29;99829.28;5112229;28;20463;-68
2022/05/21 05:40:52;;;;;;;10.10;9.07;;;;;;;25.16;46.67;99857.81;5110353;28;20048;-67
2022/05/21 05:43:21;;;;;;;10.57;9.77;;;;;;;25.34;46.01;99868.56;5108372;28;20127;-69
2022/05/21 05:45:58;;;;;;;10.75;9.75;;;;;;;25.52;45.37;99872.34;5113788;27;20048;-68
2022/05/21 05:48:27;;;;;;;15.15;9.75;;;;;;;25.63;45.14;99876.06;5092542;28;20052;-67
2022/05/21 05:50:55;;;;;;;10.15;9.18;;;;;;;25.71;44.74;99880.63;5101359;27;20063;-69
2022/05/21 05:53:22;;;;;;;12.52;11.35;;;;;;;25.50;45.76;99878.47;5093405;28;20507;-69
2022/05/21 05:55:49;;;;;;;11.32;10.25;;;;;;;25.54;46.57;99924.22;5093078;28;20135;-69
2022/05/21 06:01:02;;;;;;;12.70;8.85;;;;;;;25.48;46.32;99931.53;5104372;28;20135;-69
2022/05/21 06:03:29;;;;;;;12.50;8.43;;;;;;;25.68;46.06;99952.09;5092390;28;20087;-69
2022/05/21 06:05:55;;;;;;;14.63;10.02;;;;;;;25.66;45.58;99943.91;5108441;28;20146;-69
2022/05/21 06:08:22;;;;;;;8.77;7.78;;;;;;;25.63;45.36;99936.13;5112429;27;20067;-68
2022/05/21 06:10:50;;;;;;;10.73;9.65;;;;;;;25.99;44.61;99957.22;5103965;28;20578;-68
2022/05/21 06:13:17;;;;;;;10.65;8.00;;;;;;;25.97;44.14;99938.81;5111918;27;20135;-68
2022/05/21 06:15:44;;;;;;;10.00;8.90;;;;;;;26.14;43.72;99952.38;5104609;27;20101;-68
2022/05/21 06:18:17;;;;;;;16.65;9.80;;;;;;;26.16;43.13;99957.72;5108538;28;20047;-70
2022/05/21 06:20:45;;;;;;;10.73;8.98;;;;;;;26.31;42.29;99964.34;5108199;27;20098;-71
2022/05/21 06:23:12;;;;;;;13.13;9.57;;;;;;;26.39;42.03;99963.97;5112441;28;20577;-70
2022/05/21 06:25:40;;;;;;;12.90;9.88;;;;;;;26.44;41.61;99960.72;5110295;28;20138;-69
2022/05/21 06:28:07;;;;;;;15.00;13.75;;;;;;;26.42;41.65;99951.69;5106507;28;21839;-68
2022/05/21 06:30:38;;;;;;;13.15;10.90;;;;;;;26.29;42.07;99952.44;5108060;27;20138;-68
2022/05/21 06:33:18;;;;;;;11.18;10.02;;;;;;;26.13;43.04;99961.38;5107634;28;20123;-70
2022/05/21 06:35:47;;;;;;;12.38;11.20;;;;;;;26.13;43.12;99961.38;5105049;28;20537;-69
2022/05/21 06:38:15;;;;;;;14.63;10.68;;;;;;;26.30;43.50;100005.63;5112482;28;20126;-69
2022/05/21 06:40:41;;;;;;;15.85;10.60;;;;;;;26.28;43.63;100043.22;5109115;28;20048;-68
2022/05/21 06:43:09;;;;;;;17.30;11.52;;;;;;;26.33;44.03;100076.41;5107655;28;20075;-69
2022/05/21 06:45:36;;;;;;;15.40;11.70;;;;;;;26.01;44.19;100031.19;5110689;28;20059;-67
2022/05/21 06:48:08;;;;;;;16.75;11.05;;;;;;;26.16;44.58;100064.44;5108963;28;20484;-69
2022/05/21 06:50:38;;;;;;;16.70;10.48;;;;;;;26.06;44.84;100067.22;5106203;28;20172;-68
2022/05/21 06:53:05;;;;;;;18.63;11.73;;;;;;;25.97;45.19;100062.66;5106628;28;20043;-68
2022/05/21 06:55:32;;;;;;;15.77;12.07;;;;;;;25.89;45.38;100037.25;5108959;28;20566;-68
2022/05/21 06:57:59;;;;;;;20.67;11.18;;;;;;;25.83;45.38;100028.22;5108815;28;20147;-68
2022/05/21 07:00:27;;;;;;;17.88;11.73;;;;;;;25.81;45.72;100019.19;5107091;28;20868;-67
2022/05/21 07:02:54;;;;;;;19.05;11.13;;;;;;;25.76;45.89;100033.84;5103064;28;20044;-67
2022/05/21 07:08:21;;;;;;;24.30;12.30;;;;;;;25.62;46.43;100042.31;5109268;28;20486;-68
2022/05/21 07:10:48;;;;;;;19.88;15.90;;;;;;;25.48;47.40;100080.19;5102879;28;20140;-67
2022/05/21 07:13:16;;;;;;;20.63;13.00;;;;;;;25.35;47.22;100059.63;5111004;28;20078;-68
2022/05/21 07:15:43;;;;;;;22.52;12.55;;;;;;;25.35;47.33;100070.25;5106174;28;20138;-69
2022/05/21 07:18:12;;;;;;;18.23;12.20;;;;;;;25.32;46.98;100065.31;5106876;28;20402;-68
2022/05/21 07:20:39;;;;;;;19.42;11.57;;;;;;;25.28;46.87;100077.53;5112287;28;20051;-68
2022/05/21 07:23:06;;;;;;;26.33;12.02;;;;;;;25.33;46.12;100066.94;5111069;28;20051;-68
2022/05/21 07:25:33;;;;;;;19.05;12.40;;;;;;;25.32;46.22;100062.44;5107116;28;20048;-68
2022/05/21 07:28:00;;;;;;;16.15;10.85;;;;;;;25.33;46.44;100052.66;5114668;28;20138;-68
2022/05/21 07:30:29;;;;;;;17.38;11.30;;;;;;;25.35;46.38;100068.22;5105942;27;20126;-69
2022/05/21 07:32:56;;;;;;;20.67;10.85;;;;;;;25.37;46.44;100099.25;5107553;28;20075;-67
2022/05/21 07:35:25;;;;;;;18.17;11.32;;;;;;;25.17;46.71;100050.88;5108809;28;20059;-69
2022/05/21 07:37:52;;;;;;;17.73;12.70;;;;;;;25.38;46.53;100083.75;5110471;28;20464;-68
2022/05/21 07:40:21;;;;;;;20.00;11.35;;;;;;;25.34;46.93;100060.84;5093628;28;20083;-68
2022/05/21 07:42:48;;;;;;;17.17;10.73;;;;;;;25.16;47.50;100092.09;5111561;28;20044;-68
2022/05/21 07:45:19;;;;;;;10.82;9.68;;;;;;;25.04;48.07;100132.31;5117224;27;20043;-67
2022/05/21 07:47:50;;;;;;;14.10;10.15;;;;;;;24.87;48.48;100081.50;5121997;27;20051;-68
2022/05/21 07:50:18;;;;;;;12.23;10.18;;;;;;;24.84;48.24;100057.41;5108021;27;20070;-67
2022/05/21 07:52:44;;;;;;;14.23;11.07;;;;;;;24.82;47.89;100063.53;5114765;28;20079;-68
2022/05/21 07:55:13;;;;;;;24.50;10.98;;;;;;;24.87;48.19;100092.94;5109144;28;20150;-69
2022/05/21 07:57:41;;;;;;;17.27;10.88;;;;;;;24.94;47.61;100084.44;5108070;28;20047;-70
2022/05/21 08:00:10;;;;;;;18.95;11.18;;;;;;;25.17;47.61;100070.88;5104694;28;20139;-68
2022/05/21 08:02:41;;;;;;;16.33;11.13;;;;;;;25.26;47.74;100045.69;5103197;28;20482;-67
2022/05/21 08:05:08;;;;;;;19.92;11.48;;;;;;;25.21;47.61;100042.34;5106996;28;20051;-69
2022/05/21 08:07:35;;;;;;;17.48;11.65;;;;;;;25.17;48.20;100045.16;5115527;28;20138;-69
2022/05/21 08:10:05;;;;;;;18.70;11.85;;;;;;;25.23;47.98;100083.59;5112309;27;20384;-69
2022/05/21 08:12:32;;;;;;;20.77;12.63;;;;;;;25.15;48.12;100135.34;5114129;28;20075;-68
2022/05/21 08:14:59;;;;;;;17.92;10.45;;;;;;;25.14;48.62;100108.00;5111406;27;20082;-69
2022/05/21 08:17:26;;;;;;;19.90;11.27;;;;;;;24.93;48.36;100071.41;5101970;27;20126;-70
2022/05/21 08:19:52;;;;;;;19.00;11.48;;;;;;;24.92;48.84;100029.75;5110430;27;20166;-68
2022/05/21 08:27:56;;;;;;;19.48;10.77;;;;;;;25.07;48.79;100080.13;5113680;28;20105;-68
2022/05/21 08:30:24;;;;;;;21.20;10.25;;;;;;;25.03;48.84;100060.09;5110313;27;20182;-69
2022/05/21 08:32:59;;;;;;;18.25;10.02;;;;;;;24.88;49.30;100117.41;5112411;28;20071;-68
2022/05/21 08:35:25;;;;;;;14.55;9.60;;;;;;;24.80;49.67;100079.38;5114332;27;20048;-68
2022/05/21 08:37:52;;;;;;;19.02;10.52;;;;;;;24.72;49.90;100078.47;5114765;28;20102;-68
2022/05/21 08:40:21;;;;;;;19.50;10.13;;;;;;;24.50;50.47;100068.78;5109631;27;20086;-69
2022/05/21 08:42:55;;;;;;;19.48;10.45;;;;;;;24.51;50.57;100072.47;5113838;28;20069;-69
2022/05/21 08:45:32;;;;;;;18.35;10.32;;;;;;;24.34;51.12;100099.50;5108097;27;20075;-71
2022/05/21 08:48:02;;;;;;;10.57;9.10;;;;;;;24.19;51.00;100112.75;5108405;28;20075;-67
2022/05/21 08:50:34;;;;;;;12.57;9.32;;;;;;;24.10;51.36;100163.53;5097521;28;20125;-67
2022/05/21 08:53:11;;;;;;;20.60;13.48;;;;;;;23.86;53.31;100068.66;5113368;27;20119;-68
2022/05/21 08:55:42;;;;;;;14.88;9.02;;;;;;;23.80;50.90;100081.56;5113296;27;20147;-70
2022/05/21 08:58:24;;;;;;;16.25;10.30;;;;;;;24.24;50.55;100069.63;5107908;27;20101;-69
2022/05/21 09:00:52;;;;;;;12.95;11.75;;;;;;;24.48;50.12;100044.69;5106599;27;20079;-69
2022/05/21 09:03:22;;;;;;;22.92;10.30;;;;;;;24.68;49.07;100054.75;5105375;27;20048;-68
2022/05/21 09:06:03;;;;;;;23.08;10.23;;;;;;;24.87;48.18;100010.94;5146407;27;20130;-68
2022/05/21 09:08:50;;;;;;;12.88;8.80;;;;;;;25.22;47.31;100007.66;5107769;28;20094;-68
2022/05/21 09:11:45;;;;;;;16.75;8.93;;;;;;;25.48;45.33;99980.13;5106305;27;20509;-69
2022/05/21 09:14:24;;;;;;;11.18;9.07;;;;;;;25.76;44.25;99988.91;5104981;28;20123;-69
2022/05/21 09:16:54;;;;;;;;;;;;;;;25.96;44.26;100002.97;5112991;27;20126;-69
2022/05/21 09:19:46;;;;;;;10.77;9.70;;;;;;;26.02;42.17;99955.63;5098542;28;20279;-69
2022/05/21 09:22:15;;;;;;;17.52;9.05;;;;;;;26.43;41.47;99961.13;5093862;28;20083;-69
2022/05/21 09:25:17;;;;;;;20.52;10.57;;;;;;;26.71;40.57;99963.28;5113817;28;20048;-68
2022/05/21 09:27:44;;;;;;;23.15;11.63;;;;;;;27.00;41.04;99987.09;5107859;27;20093;-69
2022/05/21 09:30:31;;;;;;;20.27;15.07;;;;;;;26.97;41.82;99950.63;5110084;28;20126;-69
2022/05/21 09:33:02;;;;;;;25.23;15.00;;;;;;;26.93;42.29;99964.16;5105905;28;20078;-69
2022/05/21 09:35:47;;;;;;;18.58;10.70;;;;;;;26.86;42.17;99942.03;5110217;27;20134;-69
2022/05/21 09:38:21;;;;;;;18.27;11.48;;;;;;;26.78;42.21;99934.66;5111773;28;20134;-69
2022/05/21 09:40:49;;;;;;;17.63;10.52;;;;;;;26.75;42.33;99937.53;5111810;28;20439;-69
2022/05/21 09:46:26;;;;;;;16.63;12.63;;;;;;;26.73;42.63;99994.38;5104325;27;20071;-68
2022/05/21 09:49:11;;;;;;;14.15;9.52;;;;;;;26.56;42.83;99973.03;5108176;28;20062;-68
2022/05/21 09:51:40;;;;;;;17.90;11.73;;;;;;;26.59;42.69;99967.31;5101769;27;20139;-69
2022/05/21 09:54:22;;;;;;;13.88;8.98;;;;;;;26.67;42.70;100000.50;5097237;28;20134;-69
2022/05/21 09:56:53;;;;;;;19.95;8.20;;;;;;;26.72;42.31;100015.66;5100711;27;20180;-68
2022/05/21 09:59:23;;;;;;;20.10;11.38;;;;;;;26.68;42.31;99979.22;5104118;28;20070;-68
2022/05/21 10:01:57;;;;;;;19.92;10.38;;;;;;;26.81;42.37;100024.72;5107441;28;20066;-68
2022/05/21 10:04:33;;;;;;;15.20;8.45;;;;;;;26.75;42.91;100037.78;5104541;28;20044;-69
2022/05/21 10:10:58;;;;;;;16.08;9.73;;;;;;;26.58;42.94;100013.56;5104296;27;20048;-69
2022/05/21 10:13:00;;;;;;;14.80;10.45;;;;;;;26.37;43.23;100005.66;5103493;28;20550;-68
2022/05/21 10:15:32;;;;;;;28.85;10.88;;;;;;;26.36;43.45;100015.47;5104629;28;20138;-69
2022/05/21 10:18:07;;;;;;;20.35;10.95;;;;;;;26.53;43.71;100037.69;5103226;28;20112;-68
2022/05/21 10:20:41;;;;;;;11.27;7.85;;;;;;;26.49;43.92;100036.81;5109963;28;20086;-69
2022/05/21 10:23:26;;;;;;;20.42;9.10;;;;;;;26.53;43.99;100003.31;5106385;27;20109;-69
2022/05/21 10:26:30;;;;;;;24.10;10.50;;;;;;;26.47;44.09;99979.16;5109559;28;20134;-69
2022/05/21 10:29:15;;;;;;;22.90;10.57;;;;;;;26.55;44.45;100006.59;5097115;28;20079;-69
2022/05/21 10:32:08;;;;;;;20.40;12.27;;;;;;;26.55;44.63;99991.47;5103256;27;20473;-69
2022/05/21 10:34:56;;;;;;;19.33;11.48;;;;;;;26.52;45.04;99973.03;5108060;27;20489;-69
2022/05/21 10:37:47;;;;;;;18.42;10.88;;;;;;;26.60;44.67;99969.00;5102396;28;20082;-68
2022/05/21 10:40:47;;;;;;;28.42;13.32;;;;;;;26.57;44.66;99998.44;5103160;28;20063;-69
2022/05/21 10:43:45;;;;;;;17.50;13.02;;;;;;;26.59;45.15;100012.34;5074980;28;20119;-68
2022/05/21 10:46:56;;;;;;;27.02;12.90;;;;;;;26.54;45.12;100027.88;5103429;28;20048;-69
2022/05/21 10:49:37;;;;;;;19.35;10.82;;;;;;;26.51;45.44;100011.50;5030324;28;20053;-68
2022/05/21 10:52:07;;;;;;;23.65;11.77;;;;;;;26.55;45.20;100000.03;5048240;28;20215;-69
2022/05/21 10:54:37;;;;;;;29.80;14.40;;;;;;;26.63;45.13;99973.06;5075266;28;20230;-69
2022/05/21 10:57:31;;;;;;;21.75;13.50;;;;;;;26.62;45.36;99931.34;5105086;28;20090;-68
2022/05/21 10:59:59;;;;;;;24.90;11.00;;;;;;;26.69;45.23;99926.44;5107484;28;20055;-69
2022/05/21 11:02:41;;;;;;;16.08;9.85;;;;;;;26.72;45.22;99924.81;5099124;28;20147;-68
2022/05/21 11:05:28;;;;;;;24.92;11.52;;;;;;;26.72;45.60;99924.00;5103052;28;20048;-68
2022/05/21 11:08:08;;;;;;;33.10;13.32;;;;;;;26.68;45.85;99952.63;5107470;28;20074;-69
2022/05/21 11:10:54;;;;;;;24.42;11.52;;;;;;;26.67;45.71;99966.16;5104068;28;20134;-69
2022/05/21 11:13:38;;;;;;;17.77;11.05;;;;;;;26.52;45.86;99938.66;5102506;28;20143;-70
2022/05/21 11:16:17;;;;;;;24.10;16.08;;;;;;;26.46;46.35;99935.38;5104990;28;20075;-68
2022/05/21 11:19:02;;;;;;;19.13;11.20;;;;;;;26.33;45.54;99930.41;5104499;28;20135;-69
2022/05/21 11:21:44;;;;;;;21.17;12.20;;;;;;;26.39;45.54;99968.84;5105361;28;20138;-69
2022/05/21 11:24:30;;;;;;;15.50;12.65;;;;;;;26.33;45.09;99959.03;5108812;28;20082;-68
2022/05/21 11:27:10;;;;;;;20.58;9.98;;;;;;;26.44;45.03;99954.16;5139825;27;20076;-69
2022/05/21 11:29:48;;;;;;;17.20;9.57;;;;;;;26.43;44.08;99950.50;5115143;28;20142;-69
2022/05/21 11:38:42;;;;;;;19.52;13.80;;;;;;;26.68;43.68;100044.28;5067631;28;20051;-69
2022/05/21 11:41:29;;;;;;;27.27;11.88;;;;;;;26.70;44.05;100008.31;5066703;28;20076;-69
2022/05/21 11:47:07;;;;;;;20.83;9.68;;;;;;;27.28;41.64;100014.19;5109451;28;20132;-70
2022/05/21 11:50:15;;;;;;;27.25;12.95;;;;;;;27.25;42.15;99981.44;5113672;27;20058;-69
2022/05/21 11:52:51;;;;;;;22.55;11.10;;;;;;;27.25;42.68;99960.53;5102463;28;20134;-67
2022/05/21 11:55:43;;;;;;;20.95;11.15;;;;;;;27.17;42.70;99905.25;5111668;28;20131;-68
2022/05/21 11:58:10;;;;;;;21.75;13.23;;;;;;;27.46;42.83;99948.28;5105474;28;20517;-68
2022/05/21 12:00:42;;;;;;;18.83;11.77;;;;;;;27.56;42.52;99968.34;5108269;28;20487;-68
2022/05/21 12:03:15;;;;;;;30.55;12.65;;;;;;;27.60;42.97;99986.34;5108880;28;20123;-69
2022/05/21 12:05:47;;;;;;;19.65;9.90;;;;;;;27.38;43.45;100001.91;5112073;27;20083;-70
2022/05/21 12:08:32;;;;;;;26.98;11.18;;;;;;;27.25;43.68;100020.72;5105335;27;20391;-74
2022/05/21 12:11:06;;;;;;;16.95;11.07;;;;;;;27.51;43.93;100031.00;5107902;28;20471;-74
2022/05/21 12:13:33;;;;;;;22.20;11.05;;;;;;;27.79;43.54;100056.03;5107012;27;20143;-71